Brisbane International Airport
YBBN : now visible

Aeroporto :











RITROVATECI SU...

 
LOGIN :

Iscrizione | Disclaimer

   EN    FR    IT 

 









Sommario :    VFR   VFR Marginale   IFR   IFR Intensivo   IFR Molto Intensivo
Visibilità : 
Base nubi : 
>= 8 km
>= 3000ft
5 / 8 km
1000 / 3000 ft
1500m / 5 km
500 / 1000 ft
800 / 1500m
200 / 500 ft
< 800m
< 200 ft
Simboli :   Temporali  Nebbia  Neve Forte  Precipitazioni Forti  Vento > 20 kt






- Altitudine del aeroporto : 13 ft
- Codice IATA : BNE


YBBN - Brisbane International

ULTIMO METAR :
  • 252000Z 27003KT CAVOK 10/06 Q1017

METARs OBSOLETI :
  • 251930Z 00000KT CAVOK 11/06 Q1016 NOSIG
  • 251900Z 26003KT CAVOK 10/07 Q1016
  • 251830Z 21004KT CAVOK 10/06 Q1016 NOSIG
  • 251800Z 00000KT CAVOK 10/07 Q1016
  • 251730Z 32001KT CAVOK 11/07 Q1016 FM1800 26005KT CAVOK

TAF TAF YBBN
Valido dal 25 a 18 ore il 27 a 00 ore UTC


251704Z 2518/2700 24005KT CAVOK
FM260200 03009KT CAVOK
FM261000 24005KT CAVOK
FIR YBBB / Oceania



MetMap, La meteo Aeronautica in un colpo d'occhio ! - Copyright ORBIFLY Dicembre 2007 - Disclaimer

ORBIFLY MET'MAP TEAM :

Programmazione e sviluppo : Alexandra Zaïnal
Concezione : Baudouin d'Aumeries
Aiuto per la programmazione : Marc-Olivier Méhu
Supporto tecnico e logistico : Manuel Goepfert
Aiuto per la traduzione : Arnaldo La Scala

Contatto : metmap@orbifly.com




FONTI E CREDITI :

   NOAA       Earth
Advisory